CST,Max TemperatureF,Mean TemperatureF,Min TemperatureF,Max Dew PointF,MeanDew PointF,Min DewpointF,Max Humidity, Mean Humidity, Min Humidity, Max Sea Level PressureIn, Mean Sea Level PressureIn, Min Sea Level PressureIn, Max VisibilityMiles, Mean VisibilityMiles, Min VisibilityMiles, Max Wind SpeedMPH, Mean Wind SpeedMPH, Max Gust SpeedMPH,PrecipitationIn, CloudCover, Events, WindDirDegrees
2013-11-1,47,41,34,40,36,32,89,77,65,29.98,29.73,29.53,,,,22,13,28,0.01,,,325
2013-11-2,53,42,30,36,32,29,92,67,41,30.09,30.04,29.99,,,,12,5,14,0.00,,,290
2013-11-3,56,43,30,35,32,29,92,67,41,29.97,29.76,29.65,,,,32,15,40,0.00,,,172
2013-11-4,46,37,28,36,29,23,85,65,45,30.15,29.90,29.67,,,,23,12,28,0.00,,,294
2013-11-5,38,33,28,26,22,20,75,64,52,30.29,30.21,30.16,,,,12,4,14,0.00,,,339
2013-11-6,43,31,19,29,24,17,92,71,49,30.19,30.16,30.11,,,,28,9,35,0.00,,,284
2013-11-7,48,37,25,27,23,19,85,64,42,30.31,30.23,30.16,,,,21,9,26,0.00,,,303
2013-11-8,50,37,23,40,31,22,92,74,56,30.14,29.78,29.57,,,,25,11,33,0.04,,,198
2013-11-9,44,38,31,39,28,23,83,66,49,30.35,30.05,29.71,,,,36,21,47,0.00,,,327
2013-11-10,41,31,21,29,24,10,92,78,64,30.37,30.28,30.15,,,,28,9,32,0.00,,,251
2013-11-11,21,13,5,9,6,3,83,70,56,30.89,30.68,30.39,,,,26,13,32,0.00,,,358
2013-11-12,38,21,4,21,9,1,88,58,27,30.88,30.67,30.30,,,,17,8,23,0.00,,,225
2013-11-13,60,45,30,35,30,21,75,56,37,30.25,29.99,29.87,,,,26,9,36,0.00,,,252
2013-11-14,52,43,33,36,34,31,82,68,54,29.85,29.82,29.79,,,,24,9,30,0.00,,,297
2013-11-15,58,40,22,37,32,23,100,72,43,29.82,29.66,29.43,,,,29,12,36,0.00,,,199
2013-11-16,46,39,31,41,37,29,100,83,65,29.41,29.32,29.25,,,,28,8,35,0.02,,,277
2013-11-17,40,35,30,38,31,23,100,86,72,30.00,29.65,29.36,,,,25,15,32,0.00,,,338
2013-11-18,38,30,22,23,21,19,92,73,54,30.24,30.17,30.01,,,,23,8,29,0.00,,,341
2013-11-19,54,38,21,33,27,19,92,67,41,30.16,29.84,29.61,,,,30,15,38,0.00,,,183
2013-11-20,51,37,22,31,27,18,92,69,46,30.20,29.88,29.63,,,,26,14,32,0.00,,,347
2013-11-21,22,14,5,15,8,-1,84,73,61,30.74,30.55,30.22,,,,29,19,36,0.00,,,352
2013-11-22,27,14,1,15,6,-2,87,67,46,30.88,30.69,30.58,,,,23,12,28,0.00,,,327
2013-11-23,17,7,-3,3,-1,-7,87,69,51,31.05,30.91,30.71,,,,14,7,17,0.00,,,356
2013-11-24,44,25,6,27,15,1,80,55,30,30.66,30.17,29.88,,,,33,17,44,0.00,,,215
2013-11-25,39,33,26,26,22,18,78,65,52,30.24,30.08,29.91,,,,28,17,32,0.00,,,330
2013-11-26,26,15,4,11,6,1,88,67,46,30.55,30.45,30.27,,,,31,16,38,0.00,,,346
2013-11-27,29,15,1,11,6,-1,95,71,46,30.51,30.23,30.04,,,,25,9,30,0.00,,,171
2013-11-28,23,14,5,16,10,2,87,73,59,30.56,30.44,30.18,,,,22,10,26,0.00,,,3
2013-11-29,38,22,5,22,14,5,87,70,52,30.53,30.27,30.05,,,,24,11,31,0.00,,,174
2013-11-30,34,26,17,24,21,15,92,78,64,30.27,30.17,30.05,,,,16,7,18,0.00,,,2